»·PEaware :: SWA2112 KSAN-KPHX

SWA2112 :: KSAN-KPHX

FLIGHT INFORMATION

Flight Status: Arrived
Operator:
Southwest Airlines
More flights by this operator :: More flights under this callsign
Pilot: Michael C. (27126)
Aircraft: BOEING 737-800
(B738)
More flights by this aircraft type
Origin: KSAN San Diego Intl-Lindbergh
United States
Destination: KPHX Phoenix Sky Harbor Intl
United States
More flights between these airports :: More routes between these airports
Route: ZZOOO2 IPL J18 BZA HOGGZ HYDRR1
File this flight plan on PilotEdge
Remarks: RMK / SIMBRIEF
Altitude:
(Current/Filed)
27,000ft
Speed:
(Current/Filed)
455kts
Departed: 14-Feb-20 05:47 PM
Arrived: 14-Feb-20 06:51 PM
Distance/Time
Traveled:
264nm/1:04
Distance/Time
To Go:
Arrived

Flight Plot

Page will automatically refresh every two minutes.

Flight plan parsing failed; only flown route is shown


Map Options




Map Legend


Flown Route
Filed Route
Departure Airport
Arrival Airport
Navaid (VOR, NDB)
Fix

Horizontal Profiles

Position Reports

Time Latitude Longitude Heading Altitude Ground
Speed
14-Feb-20 17:16 32.731201 -117.195352 264 25ft 0kts
14-Feb-20 17:17 32.731201 -117.195352 264 25ft 0kts
14-Feb-20 17:18 32.731201 -117.195352 264 25ft 0kts
14-Feb-20 17:19 32.731201 -117.195352 264 25ft 0kts
14-Feb-20 17:20 32.731201 -117.195352 264 25ft 0kts
14-Feb-20 17:21 32.731201 -117.195352 264 25ft 0kts
14-Feb-20 17:22 32.731201 -117.195352 264 25ft 0kts
14-Feb-20 17:23 32.731201 -117.195352 264 25ft 0kts
14-Feb-20 17:24 32.731201 -117.195352 264 25ft 0kts
14-Feb-20 17:25 32.731201 -117.195352 264 25ft 0kts
14-Feb-20 17:26 32.731201 -117.195352 264 25ft 0kts
14-Feb-20 17:27 32.731201 -117.195352 264 25ft 0kts
14-Feb-20 17:28 32.731201 -117.195352 264 25ft 0kts
14-Feb-20 17:29 32.731201 -117.195352 264 25ft 0kts
14-Feb-20 17:30 32.731201 -117.195352 264 25ft 0kts
14-Feb-20 17:31 32.731201 -117.195352 264 25ft 0kts
14-Feb-20 17:32 32.731201 -117.195352 264 25ft 0kts
14-Feb-20 17:33 32.731201 -117.195352 264 25ft 0kts
14-Feb-20 17:34 32.731426 -117.195143 193 25ft 2kts
14-Feb-20 17:35 32.732002 -117.194939 196 25ft 2kts
14-Feb-20 17:36 32.732389 -117.195071 79 25ft 1kts
14-Feb-20 17:38 32.732385 -117.195109 84 25ft 0kts
14-Feb-20 17:39 32.732385 -117.195109 84 25ft 0kts
14-Feb-20 17:40 32.732385 -117.195109 84 25ft 0kts
14-Feb-20 17:41 32.732385 -117.195109 84 25ft 0kts
14-Feb-20 17:42 32.733406 -117.193597 85 25ft 17kts
14-Feb-20 17:43 32.731805 -117.186669 104 25ft 24kts
14-Feb-20 17:44 32.729974 -117.179084 105 25ft 27kts
14-Feb-20 17:45 32.729530 -117.176809 81 25ft 0kts
14-Feb-20 17:46 32.730227 -117.176095 303 25ft 5kts
14-Feb-20 17:47 32.737672 -117.208180 285 837ft 177kts
14-Feb-20 17:48 32.729616 -117.271756 228 3641ft 220kts
14-Feb-20 17:49 32.667429 -117.294466 167 6509ft 258kts
14-Feb-20 17:50 32.633367 -117.226787 96 9259ft 273kts
14-Feb-20 17:51 32.624862 -117.138017 96 11900ft 293kts
14-Feb-20 17:52 32.616566 -117.048468 96 11991ft 284kts
14-Feb-20 17:53 32.609286 -116.948127 93 12845ft 343kts
14-Feb-20 17:54 32.618293 -116.828995 75 14856ft 381kts
14-Feb-20 17:55 32.637496 -116.702936 83 17203ft 399kts
14-Feb-20 17:56 32.650302 -116.569322 83 19378ft 416kts
14-Feb-20 17:57 32.663847 -116.430053 83 21374ft 431kts
14-Feb-20 17:57 32.675210 -116.312327 84 22841ft 444kts
14-Feb-20 17:58 32.687707 -116.182031 84 24216ft 456kts
14-Feb-20 18:00 32.697730 -116.076309 84 25299ft 465kts
14-Feb-20 18:01 32.705441 -115.993069 84 26106ft 471kts
14-Feb-20 18:01 32.712517 -115.913896 84 26819ft 477kts
14-Feb-20 18:02 32.720213 -115.828981 84 27079ft 485kts
14-Feb-20 18:03 32.729313 -115.729125 84 27085ft 496kts
14-Feb-20 18:05 32.740532 -115.605800 84 27084ft 493kts
14-Feb-20 18:05 32.747834 -115.523047 86 27084ft 494kts
14-Feb-20 18:06 32.751167 -115.418108 89 27084ft 493kts
14-Feb-20 18:07 32.753354 -115.326904 89 27077ft 493kts
14-Feb-20 18:08 32.755107 -115.254466 89 27073ft 492kts
14-Feb-20 18:09 32.757223 -115.164862 89 27080ft 493kts
14-Feb-20 18:10 32.760542 -115.018349 90 27076ft 497kts
14-Feb-20 18:11 32.762336 -114.925247 90 27075ft 498kts
14-Feb-20 18:12 32.763858 -114.843927 90 27075ft 498kts
14-Feb-20 18:13 32.765322 -114.767514 90 27076ft 498kts
14-Feb-20 18:14 32.766946 -114.682298 90 27076ft 498kts
14-Feb-20 18:15 32.768520 -114.597987 90 27074ft 498kts
14-Feb-20 18:16 32.770462 -114.449896 90 27071ft 498kts
14-Feb-20 18:17 32.772457 -114.298945 90 27063ft 498kts
14-Feb-20 18:18 32.774796 -114.117237 90 27055ft 482kts
14-Feb-20 18:19 32.790285 -113.934369 83 26560ft 475kts
14-Feb-20 18:20 32.806807 -113.781240 82 25573ft 464kts
14-Feb-20 18:21 32.849546 -113.649414 54 25080ft 442kts
14-Feb-20 18:22 32.917915 -113.552183 45 25074ft 442kts
14-Feb-20 18:23 32.968997 -113.483359 45 24298ft 432kts
14-Feb-20 18:24 33.044749 -113.381135 46 22301ft 419kts
14-Feb-20 18:25 33.096068 -113.311659 47 21812ft 418kts
14-Feb-20 18:26 33.152476 -113.235310 47 19665ft 403kts
14-Feb-20 18:27 33.250595 -113.096670 59 15527ft 371kts
14-Feb-20 18:28 33.275841 -112.983970 87 13618ft 326kts
14-Feb-20 18:29 33.279184 -112.878765 89 13164ft 316kts
14-Feb-20 18:30 33.283455 -112.774163 88 12712ft 314kts
14-Feb-20 18:31 33.289619 -112.670478 86 12201ft 312kts
14-Feb-20 18:32 33.296964 -112.567784 85 11750ft 308kts
14-Feb-20 18:33 33.304521 -112.465806 83 11368ft 307kts
14-Feb-20 18:34 33.320250 -112.365431 79 11025ft 305kts
14-Feb-20 18:35 33.333366 -112.265205 83 10283ft 297kts
14-Feb-20 18:36 33.344034 -112.170627 84 9465ft 277kts
14-Feb-20 18:37 33.348576 -112.081654 90 8723ft 261kts
14-Feb-20 18:38 33.348366 -111.996586 91 7631ft 257kts
14-Feb-20 18:39 33.348105 -111.913034 90 6994ft 241kts
14-Feb-20 18:40 33.348056 -111.836688 90 7001ft 220kts
14-Feb-20 18:41 33.348059 -111.761817 90 6573ft 226kts
14-Feb-20 18:42 33.362449 -111.691258 19 4737ft 232kts
14-Feb-20 18:43 33.423405 -111.685562 354 3999ft 206kts
14-Feb-20 18:44 33.436872 -111.736724 240 3642ft 187kts
14-Feb-20 18:45 33.428841 -111.796398 269 3222ft 184kts
14-Feb-20 18:46 33.429002 -111.853823 268 2906ft 172kts
14-Feb-20 18:47 33.428466 -111.908636 270 2437ft 154kts
14-Feb-20 18:48 33.428861 -111.956986 268 1803ft 145kts
14-Feb-20 18:49 33.428877 -112.002525 270 1153ft 135kts
14-Feb-20 18:50 33.429400 -112.021466 337 1119ft 1kts
14-Feb-20 18:51 33.429952 -112.024242 269 1119ft 13kts
14-Feb-20 18:52 33.431943 -112.025250 38 1119ft 0kts
14-Feb-20 18:53 33.432165 -112.020388 90 1119ft 22kts
14-Feb-20 18:54 33.432164 -112.013860 89 1126ft 16kts
14-Feb-20 18:55 33.432152 -112.006915 90 1130ft 25kts
14-Feb-20 18:56 33.432632 -112.000557 19 1128ft 11kts
14-Feb-20 18:57 33.434291 -111.999881 87 1129ft 2kts
14-Feb-20 18:58 33.434291 -111.999873 87 1129ft 0kts
14-Feb-20 18:59 33.434291 -111.999873 87 1129ft 0kts

Navigation Log

Ident Type
Flight plan parsing failed, navigation log unavailable